createdAt,value
2022-08-04T00:00:05.543Z,29.20
2022-08-04T00:02:47.662Z,29.20
2022-08-04T00:05:43.557Z,29.20
2022-08-04T00:08:42.305Z,29.20
2022-08-04T00:11:12.044Z,29.10
2022-08-04T00:13:59.749Z,29.20
2022-08-04T00:16:37.631Z,29.10
2022-08-04T00:19:10.432Z,29.10
2022-08-04T00:21:41.327Z,29.10
2022-08-04T00:24:12.843Z,29.10
2022-08-04T00:26:41.106Z,29.10
2022-08-04T00:29:07.963Z,29.10
2022-08-04T00:31:56.208Z,29.10
2022-08-04T00:34:27.539Z,29.10
2022-08-04T00:36:55.665Z,29.00
2022-08-04T00:39:22.940Z,29.10
2022-08-04T00:41:57.246Z,29.00
2022-08-04T00:44:30.679Z,29.00
2022-08-04T00:47:19.370Z,29.00
2022-08-04T00:50:21.911Z,29.00
2022-08-04T00:53:17.238Z,29.00
2022-08-04T00:56:08.208Z,29.00
2022-08-04T00:58:55.201Z,29.00
2022-08-04T01:01:40.480Z,28.90
2022-08-04T01:04:15.778Z,29.00
2022-08-04T01:07:14.968Z,28.90
2022-08-04T01:10:12.090Z,28.90
2022-08-04T01:12:55.429Z,28.90
2022-08-04T01:15:59.370Z,28.90
2022-08-04T01:18:56.451Z,28.90
2022-08-04T01:21:29.082Z,28.90
2022-08-04T01:24:33.586Z,28.80
2022-08-04T01:27:24.433Z,28.90
2022-08-04T01:29:59.660Z,28.80
2022-08-04T01:32:35.304Z,28.80
2022-08-04T01:35:47.671Z,28.80
2022-08-04T01:38:33.624Z,28.80
2022-08-04T01:41:04.432Z,28.80
2022-08-04T01:43:33.484Z,28.80
2022-08-04T01:46:02.771Z,28.80
2022-08-04T01:48:30.401Z,28.80
2022-08-04T01:51:04.800Z,28.80
2022-08-04T01:53:35.414Z,28.80
2022-08-04T01:56:04.242Z,28.80
2022-08-04T01:58:33.177Z,28.70
2022-08-04T02:01:05.065Z,28.80
2022-08-04T02:04:18.536Z,28.70
2022-08-04T02:06:32.195Z,28.70
2022-08-04T02:09:25.466Z,28.70
2022-08-04T02:12:16.337Z,28.70
2022-08-04T02:14:56.394Z,28.70
2022-08-04T02:17:30.413Z,28.70
2022-08-04T02:20:12.683Z,28.70
2022-08-04T02:23:01.117Z,28.70
2022-08-04T02:25:30.119Z,28.70
2022-08-04T02:28:11.945Z,28.70
2022-08-04T02:30:51.803Z,28.70
2022-08-04T02:33:23.299Z,28.60
2022-08-04T02:35:56.091Z,28.60
2022-08-04T02:38:50.987Z,28.60
2022-08-04T02:41:19.957Z,28.60
2022-08-04T02:43:50.215Z,28.60
2022-08-04T02:46:20.369Z,28.60
2022-08-04T02:48:49.073Z,28.60
2022-08-04T02:51:21.606Z,28.60
2022-08-04T02:53:53.489Z,28.60
2022-08-04T02:56:21.555Z,28.60
2022-08-04T02:59:14.651Z,28.60
2022-08-04T03:01:58.003Z,28.50
2022-08-04T03:04:36.202Z,28.50
2022-08-04T03:07:34.895Z,28.50
2022-08-04T03:10:30.720Z,28.50
2022-08-04T03:13:09.158Z,28.60
2022-08-04T03:16:02.778Z,28.50
2022-08-04T03:19:07.232Z,28.50
2022-08-04T03:22:05.777Z,28.50
2022-08-04T03:24:44.454Z,28.50
2022-08-04T03:27:41.475Z,28.50
2022-08-04T03:30:19.276Z,28.50
2022-08-04T03:33:22.850Z,28.40
2022-08-04T03:36:06.690Z,28.40
2022-08-04T03:38:56.886Z,28.50
2022-08-04T03:41:51.608Z,28.40
2022-08-04T03:44:45.802Z,28.50
2022-08-04T03:47:44.253Z,28.40
2022-08-04T03:50:40.907Z,28.40
2022-08-04T03:53:20.358Z,28.40
2022-08-04T03:56:10.311Z,28.40
2022-08-04T03:58:43.179Z,28.40
2022-08-04T04:02:00.904Z,28.40
2022-08-04T04:04:56.555Z,28.40
2022-08-04T04:07:43.706Z,28.30
2022-08-04T04:10:48.460Z,28.30
2022-08-04T04:13:34.321Z,28.30
2022-08-04T04:16:37.873Z,28.30
2022-08-04T04:19:16.246Z,28.30
2022-08-04T04:22:21.416Z,28.30
2022-08-04T04:25:32.122Z,28.30
2022-08-04T04:28:44.692Z,28.30
2022-08-04T04:30:57.660Z,28.30
2022-08-04T04:33:38.594Z,28.30
2022-08-04T04:36:13.143Z,28.30
2022-08-04T04:39:01.491Z,28.30
2022-08-04T04:41:45.194Z,28.20
2022-08-04T04:44:30.828Z,28.20
2022-08-04T04:50:23.714Z,28.20
2022-08-04T04:53:11.139Z,28.20
2022-08-04T04:55:48.289Z,28.20
2022-08-04T04:58:18.560Z,28.20
2022-08-04T05:01:12.859Z,28.20
2022-08-04T05:04:02.831Z,28.20
2022-08-04T05:06:54.417Z,28.20
2022-08-04T05:09:55.161Z,28.10
2022-08-04T05:12:44.940Z,28.10
2022-08-04T05:15:30.740Z,28.10
2022-08-04T05:18:01.076Z,28.20
2022-08-04T05:20:40.890Z,28.10
2022-08-04T05:23:07.565Z,28.10
2022-08-04T05:25:59.399Z,28.10
2022-08-04T05:28:45.321Z,28.10
2022-08-04T05:31:16.986Z,28.10
2022-08-04T05:33:49.990Z,28.10
2022-08-04T05:36:35.293Z,28.10
2022-08-04T05:39:10.011Z,28.10
2022-08-04T05:41:44.819Z,28.10
2022-08-04T05:44:15.281Z,28.00
2022-08-04T05:46:43.832Z,28.00
2022-08-04T05:49:15.859Z,28.00
2022-08-04T05:51:49.559Z,28.00
2022-08-04T05:54:18.465Z,28.00
2022-08-04T05:56:45.828Z,28.00
2022-08-04T05:59:13.875Z,28.00
2022-08-04T06:01:55.890Z,28.00
2022-08-04T06:04:31.115Z,28.00
2022-08-04T06:06:57.960Z,28.00
2022-08-04T06:09:25.005Z,28.00
2022-08-04T06:12:00.783Z,28.00
2022-08-04T06:14:35.555Z,28.00
2022-08-04T06:17:04.265Z,28.00
2022-08-04T06:19:59.591Z,27.90
2022-08-04T06:22:24.543Z,28.00
2022-08-04T06:24:55.182Z,28.00
2022-08-04T06:27:23.732Z,28.00
2022-08-04T06:29:52.849Z,27.90
2022-08-04T06:32:47.551Z,28.00
2022-08-04T06:35:17.650Z,28.00
2022-08-04T06:37:47.013Z,28.00
2022-08-04T06:40:31.400Z,27.90
2022-08-04T06:43:03.866Z,27.90
2022-08-04T06:45:31.956Z,27.90
2022-08-04T06:47:59.972Z,27.90
2022-08-04T06:51:32.924Z,27.90
2022-08-04T06:53:14.924Z,27.90
2022-08-04T06:55:44.510Z,27.80
2022-08-04T06:58:12.766Z,27.90
2022-08-04T07:00:41.608Z,27.90
2022-08-04T07:03:08.722Z,27.90
2022-08-04T07:05:36.092Z,27.90
2022-08-04T07:08:03.848Z,27.90
2022-08-04T07:10:31.560Z,27.80
2022-08-04T07:13:00.080Z,27.80
2022-08-04T07:15:27.778Z,27.80
2022-08-04T07:17:59.866Z,27.80
2022-08-04T07:20:34.653Z,27.90
2022-08-04T07:23:07.338Z,27.90
2022-08-04T07:26:01.064Z,27.80
2022-08-04T07:28:27.259Z,27.90
2022-08-04T07:30:56.674Z,28.10
2022-08-04T07:33:24.711Z,28.20
2022-08-04T07:36:10.493Z,28.30
2022-08-04T07:38:48.600Z,28.30
2022-08-04T07:41:38.273Z,28.30
2022-08-04T07:44:05.857Z,28.30
2022-08-04T07:46:32.640Z,28.20
2022-08-04T07:49:03.416Z,28.20
2022-08-04T07:51:31.826Z,28.10
2022-08-04T07:54:00.270Z,28.20
2022-08-04T07:56:28.370Z,28.20
2022-08-04T07:58:55.970Z,28.30
2022-08-04T08:01:24.534Z,28.40
2022-08-04T08:03:53.133Z,28.40
2022-08-04T08:06:32.278Z,28.50
2022-08-04T08:09:13.357Z,28.60
2022-08-04T08:12:37.317Z,28.70
2022-08-04T08:14:30.778Z,28.60
2022-08-04T08:17:00.198Z,28.60
2022-08-04T08:19:27.035Z,28.50
2022-08-04T08:21:59.036Z,28.40
2022-08-04T08:24:32.148Z,28.40
2022-08-04T08:27:00.446Z,28.50
2022-08-04T08:29:29.817Z,28.50
2022-08-04T08:32:01.367Z,28.50
2022-08-04T08:34:31.045Z,28.50
2022-08-04T08:37:27.543Z,28.50
2022-08-04T08:40:40.285Z,28.40
2022-08-04T08:44:00.588Z,28.30
2022-08-04T08:46:49.002Z,28.30
2022-08-04T08:50:01.639Z,28.20
2022-08-04T08:53:02.629Z,28.20
2022-08-04T08:55:40.061Z,28.30
2022-08-04T08:58:35.647Z,28.40
2022-08-04T09:01:41.888Z,28.60
2022-08-04T09:04:32.648Z,28.70
2022-08-04T09:06:59.335Z,28.70
2022-08-04T09:09:40.894Z,28.60
2022-08-04T09:12:16.328Z,28.60
2022-08-04T09:14:49.951Z,28.50
2022-08-04T09:17:47.313Z,28.50
2022-08-04T09:20:27.464Z,28.50
2022-08-04T09:23:06.904Z,28.60
2022-08-04T09:25:48.006Z,28.60
2022-08-04T09:28:51.701Z,28.60
2022-08-04T09:31:16.830Z,28.70
2022-08-04T09:34:01.174Z,28.80
2022-08-04T09:36:56.456Z,28.80
2022-08-04T09:39:33.408Z,28.90
2022-08-04T09:42:12.152Z,29.00
2022-08-04T09:45:04.930Z,29.00
2022-08-04T09:47:47.870Z,29.00
2022-08-04T09:50:40.268Z,29.00
2022-08-04T09:53:12.984Z,28.90
2022-08-04T09:55:53.494Z,28.70
2022-08-04T09:58:56.555Z,28.70
2022-08-04T10:01:26.989Z,28.60
2022-08-04T10:03:58.966Z,28.40
2022-08-04T10:06:39.247Z,28.40
2022-08-04T10:09:34.250Z,28.30
2022-08-04T10:12:09.191Z,28.20
2022-08-04T10:15:09.074Z,28.20
2022-08-04T10:17:54.913Z,28.10
2022-08-04T10:20:59.017Z,28.10
2022-08-04T10:23:55.187Z,28.00
2022-08-04T10:26:40.560Z,28.00
2022-08-04T10:29:18.239Z,27.90
2022-08-04T10:32:29.546Z,27.90
2022-08-04T10:35:05.308Z,27.90
2022-08-04T10:38:01.123Z,28.00
2022-08-04T10:40:51.184Z,28.00
2022-08-04T10:43:36.380Z,28.00
2022-08-04T10:46:10.846Z,28.00
2022-08-04T10:48:53.687Z,28.00
2022-08-04T10:51:57.885Z,28.00
2022-08-04T10:54:50.210Z,27.90
2022-08-04T10:57:40.846Z,27.80
2022-08-04T11:00:09.739Z,27.80
2022-08-04T11:02:53.483Z,27.80
2022-08-04T11:05:44.635Z,27.70
2022-08-04T11:08:47.455Z,27.90
2022-08-04T11:11:24.321Z,27.70
2022-08-04T11:13:53.926Z,27.70
2022-08-04T11:16:26.444Z,27.70
2022-08-04T11:19:19.750Z,27.70
2022-08-04T11:22:02.356Z,27.70
2022-08-04T11:25:12.045Z,27.70
2022-08-04T11:28:06.316Z,27.60
2022-08-04T11:30:47.534Z,27.60
2022-08-04T11:33:38.996Z,27.60
2022-08-04T11:36:25.069Z,27.60
2022-08-04T11:39:13.590Z,27.60
2022-08-04T11:41:57.593Z,27.60
2022-08-04T11:44:29.188Z,27.50
2022-08-04T11:47:02.888Z,27.50
2022-08-04T11:49:56.406Z,27.50
2022-08-04T11:52:26.580Z,27.50
2022-08-04T11:54:55.233Z,27.60
2022-08-04T11:57:24.001Z,27.60
2022-08-04T12:00:07.107Z,27.60
2022-08-04T12:02:49.369Z,27.60
2022-08-04T12:05:35.891Z,27.60
2022-08-04T12:08:24.525Z,27.60
2022-08-04T12:11:25.408Z,27.60
2022-08-04T12:14:04.434Z,27.70
2022-08-04T12:16:48.372Z,27.70
2022-08-04T12:19:33.952Z,27.70
2022-08-04T12:22:16.658Z,27.70
2022-08-04T12:24:57.024Z,27.60
2022-08-04T12:27:33.546Z,27.70
2022-08-04T12:30:57.369Z,27.70
2022-08-04T12:32:57.564Z,27.70
2022-08-04T12:36:10.317Z,27.70
2022-08-04T12:38:33.442Z,27.70
2022-08-04T12:41:05.207Z,27.70
2022-08-04T12:43:47.159Z,27.70
2022-08-04T12:46:22.274Z,27.80
2022-08-04T12:48:49.568Z,27.80
2022-08-04T12:52:06.066Z,27.80
2022-08-04T12:54:07.238Z,27.90
2022-08-04T12:56:35.155Z,27.90
2022-08-04T12:59:12.492Z,27.90
2022-08-04T13:02:08.145Z,27.90
2022-08-04T13:04:34.888Z,28.00
2022-08-04T13:07:20.967Z,28.00
2022-08-04T13:09:48.338Z,28.00
2022-08-04T13:12:32.444Z,28.00
2022-08-04T13:15:10.830Z,28.00
2022-08-04T13:17:59.179Z,28.00
2022-08-04T13:20:34.122Z,28.10
2022-08-04T13:23:11.860Z,28.10
2022-08-04T13:26:44.300Z,28.10
2022-08-04T13:28:34.637Z,28.10
2022-08-04T13:31:06.467Z,28.10
2022-08-04T13:33:36.267Z,28.10
2022-08-04T13:36:05.138Z,28.20
2022-08-04T13:38:33.602Z,28.10
2022-08-04T13:41:02.707Z,28.10
2022-08-04T13:44:15.306Z,28.10
2022-08-04T13:46:28.067Z,28.10
2022-08-04T13:49:26.007Z,28.20
2022-08-04T13:52:10.917Z,28.20
2022-08-04T13:54:42.486Z,28.20
2022-08-04T13:57:28.327Z,28.20
2022-08-04T14:00:01.668Z,28.20
2022-08-04T14:02:58.922Z,28.30
2022-08-04T14:05:33.879Z,28.30
2022-08-04T14:08:09.324Z,28.30
2022-08-04T14:10:37.036Z,28.30
2022-08-04T14:13:05.841Z,28.30
2022-08-04T14:16:02.397Z,28.40
2022-08-04T14:18:22.020Z,28.40
2022-08-04T14:21:18.361Z,28.40
2022-08-04T14:23:50.598Z,28.40
2022-08-04T14:26:34.059Z,28.40
2022-08-04T14:29:27.480Z,28.50
2022-08-04T14:32:01.932Z,28.50
2022-08-04T14:34:30.814Z,28.50
2022-08-04T14:37:17.480Z,28.50
2022-08-04T14:40:17.785Z,28.50
2022-08-04T14:42:55.800Z,28.50
2022-08-04T14:45:54.075Z,28.50
2022-08-04T14:48:23.270Z,28.50
2022-08-04T14:50:51.026Z,28.60
2022-08-04T14:53:19.821Z,28.60
2022-08-04T14:55:51.322Z,28.60
2022-08-04T14:58:35.570Z,28.60
2022-08-04T15:01:10.663Z,28.60
2022-08-04T15:03:51.761Z,28.60
2022-08-04T15:06:26.217Z,28.60
2022-08-04T15:08:55.484Z,28.60
2022-08-04T15:11:24.183Z,28.60
2022-08-04T15:13:55.844Z,28.70
2022-08-04T15:16:24.912Z,28.60
2022-08-04T15:18:54.868Z,28.60
2022-08-04T15:21:25.817Z,28.60
2022-08-04T15:23:52.586Z,28.60
2022-08-04T15:26:28.998Z,28.60
2022-08-04T15:28:59.819Z,28.60
2022-08-04T15:32:06.395Z,28.60
2022-08-04T15:34:15.363Z,28.60
2022-08-04T15:36:56.982Z,28.60
2022-08-04T15:39:36.038Z,28.60
2022-08-04T15:42:44.317Z,28.60
2022-08-04T15:45:19.323Z,28.60
2022-08-04T15:48:06.295Z,28.60
2022-08-04T15:50:33.670Z,28.60
2022-08-04T15:53:10.322Z,28.60
2022-08-04T15:55:43.871Z,28.60
2022-08-04T15:58:16.194Z,28.50
2022-08-04T16:00:54.722Z,28.60
2022-08-04T16:03:58.048Z,28.60
2022-08-04T16:06:20.582Z,28.50
2022-08-04T16:08:57.621Z,28.50
2022-08-04T16:11:31.409Z,28.50
2022-08-04T16:13:59.159Z,28.50
2022-08-04T16:16:50.292Z,28.50
2022-08-04T16:19:46.265Z,28.50
2022-08-04T16:22:31.610Z,28.50
2022-08-04T16:24:58.497Z,28.50
2022-08-04T16:27:39.977Z,28.50
2022-08-04T16:30:14.120Z,28.50
2022-08-04T16:32:47.454Z,28.50
2022-08-04T16:35:42.386Z,28.50
2022-08-04T16:38:15.050Z,28.50
2022-08-04T16:40:45.583Z,28.50
2022-08-04T16:43:15.700Z,28.40
2022-08-04T16:45:58.968Z,28.40
2022-08-04T16:48:31.044Z,28.40
2022-08-04T16:51:08.127Z,28.40
2022-08-04T16:53:52.602Z,28.40
2022-08-04T16:56:29.978Z,28.40
2022-08-04T16:58:57.168Z,28.40
2022-08-04T17:01:32.454Z,28.40
2022-08-04T17:04:05.243Z,28.40
2022-08-04T17:06:44.280Z,28.40
2022-08-04T17:09:17.069Z,28.40
2022-08-04T17:11:45.339Z,28.50
2022-08-04T17:14:12.460Z,28.50
2022-08-04T17:16:42.144Z,28.50
2022-08-04T17:19:24.437Z,28.40
2022-08-04T17:22:04.153Z,28.40
2022-08-04T17:24:33.606Z,28.40
2022-08-04T17:27:00.599Z,28.40
2022-08-04T17:29:43.602Z,28.40
2022-08-04T17:32:19.584Z,28.40
2022-08-04T17:34:49.067Z,28.40
2022-08-04T17:37:53.053Z,28.40
2022-08-04T17:40:10.431Z,28.30
2022-08-04T17:42:39.532Z,28.40
2022-08-04T17:45:52.898Z,28.40
2022-08-04T17:48:24.732Z,28.40
2022-08-04T17:50:51.965Z,28.40
2022-08-04T17:54:01.606Z,28.40
2022-08-04T17:56:51.363Z,28.40
2022-08-04T17:59:52.158Z,28.40
2022-08-04T18:02:22.852Z,28.40
2022-08-04T18:05:07.513Z,28.40
2022-08-04T18:08:40.080Z,28.40
2022-08-04T18:10:44.732Z,28.40
2022-08-04T18:13:25.392Z,28.40
2022-08-04T18:16:04.004Z,28.40
2022-08-04T18:18:31.033Z,28.30
2022-08-04T18:20:59.738Z,28.40
2022-08-04T18:23:31.537Z,28.30
2022-08-04T18:26:02.091Z,28.30
2022-08-04T18:28:33.035Z,28.40
2022-08-04T18:31:00.106Z,28.30
2022-08-04T18:33:39.894Z,28.30
2022-08-04T18:36:35.870Z,28.30
2022-08-04T18:38:59.183Z,28.20
2022-08-04T18:42:02.499Z,28.20
2022-08-04T18:44:28.738Z,28.10
2022-08-04T18:46:56.651Z,28.10
2022-08-04T18:51:00.347Z,28.20
2022-08-04T18:52:14.950Z,28.10
2022-08-04T18:54:42.796Z,28.10
2022-08-04T18:57:24.789Z,28.10
2022-08-04T18:59:57.242Z,28.10
2022-08-04T19:05:17.451Z,28.10
2022-08-04T19:10:31.678Z,28.00
2022-08-04T19:12:59.581Z,28.00
2022-08-04T19:15:33.925Z,28.00
2022-08-04T19:18:01.482Z,27.90
2022-08-04T19:20:29.317Z,27.90
2022-08-04T19:24:29.051Z,27.90
2022-08-04T19:26:01.937Z,27.90
2022-08-04T19:28:34.382Z,27.90
2022-08-04T19:31:03.820Z,27.80
2022-08-04T19:33:58.493Z,27.80
2022-08-04T19:36:17.723Z,27.80
2022-08-04T19:38:44.759Z,27.80
2022-08-04T19:41:14.590Z,27.80
2022-08-04T19:43:43.545Z,27.70
2022-08-04T19:46:12.064Z,27.70
2022-08-04T19:48:39.715Z,27.70
2022-08-04T19:51:07.783Z,27.60
2022-08-04T19:53:38.124Z,27.60
2022-08-04T19:56:10.006Z,27.60
2022-08-04T19:58:38.653Z,27.60
2022-08-04T20:01:28.666Z,27.50
2022-08-04T20:04:08.391Z,27.50
2022-08-04T20:06:37.816Z,27.50
2022-08-04T20:09:25.839Z,27.50
2022-08-04T20:11:51.511Z,27.70
2022-08-04T20:14:31.288Z,27.40
2022-08-04T20:16:58.866Z,27.40
2022-08-04T20:19:25.762Z,27.30
2022-08-04T20:21:56.530Z,27.30
2022-08-04T20:27:15.948Z,27.30
2022-08-04T20:29:49.480Z,27.30
2022-08-04T20:32:19.301Z,27.30
2022-08-04T20:34:47.201Z,27.30
2022-08-04T20:37:15.388Z,27.20
2022-08-04T20:39:42.649Z,27.20
2022-08-04T20:42:11.690Z,27.20
2022-08-04T20:47:26.761Z,27.20
2022-08-04T20:49:58.141Z,27.20
2022-08-04T20:52:28.779Z,27.20
2022-08-04T20:54:56.206Z,27.10
2022-08-04T20:57:47.617Z,27.10
2022-08-04T21:00:10.582Z,27.10
2022-08-04T21:02:40.459Z,27.10
2022-08-04T21:05:09.466Z,27.10
2022-08-04T21:07:43.851Z,27.10
2022-08-04T21:10:15.694Z,27.00
2022-08-04T21:12:43.821Z,27.00
2022-08-04T21:15:25.090Z,27.00
2022-08-04T21:20:43.214Z,27.00
2022-08-04T21:23:10.290Z,27.00
2022-08-04T21:25:42.473Z,26.90
2022-08-04T21:28:10.513Z,26.90
2022-08-04T21:30:54.514Z,26.90
2022-08-04T21:33:49.856Z,26.90
2022-08-04T21:36:13.935Z,26.90
2022-08-04T21:38:41.846Z,26.80
2022-08-04T21:41:24.220Z,26.80
2022-08-04T21:43:52.121Z,26.80
2022-08-04T21:46:20.017Z,26.80
2022-08-04T21:48:48.791Z,26.80
2022-08-04T21:51:21.857Z,26.80
2022-08-04T21:54:09.983Z,26.80
2022-08-04T21:56:41.931Z,26.70
2022-08-04T21:59:17.410Z,26.70
2022-08-04T22:01:52.205Z,26.70
2022-08-04T22:04:21.396Z,26.70
2022-08-04T22:06:52.582Z,26.70
2022-08-04T22:09:21.950Z,26.70
2022-08-04T22:11:50.790Z,26.70
2022-08-04T22:14:27.391Z,26.70
2022-08-04T22:16:57.010Z,26.70
2022-08-04T22:19:39.617Z,26.70
2022-08-04T22:22:09.510Z,26.70
2022-08-04T22:24:39.230Z,26.70
2022-08-04T22:27:11.566Z,26.70
2022-08-04T22:29:39.377Z,26.60
2022-08-04T22:32:11.577Z,26.60
2022-08-04T22:34:40.092Z,26.60
2022-08-04T22:37:12.863Z,26.60
2022-08-04T22:39:56.242Z,26.60
2022-08-04T22:42:24.366Z,26.60
2022-08-04T22:44:52.148Z,26.60
2022-08-04T22:47:20.560Z,26.60
2022-08-04T22:49:56.508Z,26.60
2022-08-04T22:52:37.032Z,26.50
2022-08-04T22:55:22.840Z,26.60
2022-08-04T22:58:04.691Z,26.50
2022-08-04T23:00:32.834Z,26.50
2022-08-04T23:02:59.621Z,26.50
2022-08-04T23:05:28.962Z,26.50
2022-08-04T23:08:05.251Z,26.50
2022-08-04T23:10:32.446Z,26.40
2022-08-04T23:13:04.235Z,26.40
2022-08-04T23:15:33.677Z,26.40
2022-08-04T23:18:00.967Z,26.50
2022-08-04T23:20:32.714Z,26.40
2022-08-04T23:23:15.033Z,26.40
2022-08-04T23:26:07.405Z,26.40
2022-08-04T23:28:31.294Z,26.40
2022-08-04T23:30:58.005Z,26.40
2022-08-04T23:33:24.904Z,26.40
2022-08-04T23:36:11.853Z,26.40
2022-08-04T23:38:39.215Z,26.40
2022-08-04T23:41:13.409Z,26.30
2022-08-04T23:43:54.973Z,26.30
2022-08-04T23:46:22.054Z,26.30
2022-08-04T23:48:49.434Z,26.30
2022-08-04T23:51:16.693Z,26.30
2022-08-04T23:54:03.802Z,26.30
2022-08-04T23:56:34.852Z,26.20
2022-08-04T23:59:04.016Z,26.20
